sensor_id;sensor_type;location;lat;lon;timestamp;pressure;altitude;pressure_sealevel;temperature;humidity
12360;BME280;6244;51.460;7.090;2023-03-04T00:00:34;101528.72;;;4.15;65.46
12360;BME280;6244;51.460;7.090;2023-03-04T00:05:31;101531.25;;;4.23;65.51
12360;BME280;6244;51.460;7.090;2023-03-04T00:10:27;101532.13;;;4.22;65.52
12360;BME280;6244;51.460;7.090;2023-03-04T00:15:24;101530.34;;;4.25;65.26
12360;BME280;6244;51.460;7.090;2023-03-04T00:20:22;101527.69;;;4.28;65.33
12360;BME280;6244;51.460;7.090;2023-03-04T00:25:19;101530.25;;;4.31;64.93
12360;BME280;6244;51.460;7.090;2023-03-04T00:30:15;101528.53;;;4.32;65.30
12360;BME280;6244;51.460;7.090;2023-03-04T00:35:12;101520.69;;;4.36;65.07
12360;BME280;6244;51.460;7.090;2023-03-04T00:40:11;101519.84;;;4.36;64.95
12360;BME280;6244;51.460;7.090;2023-03-04T00:45:09;101517.34;;;4.25;65.16
12360;BME280;6244;51.460;7.090;2023-03-04T00:50:06;101518.09;;;4.33;65.19
12360;BME280;6244;51.460;7.090;2023-03-04T00:55:04;101505.00;;;4.42;64.69
12360;BME280;6244;51.460;7.090;2023-03-04T01:00:04;101509.59;;;4.22;65.14
12360;BME280;6244;51.460;7.090;2023-03-04T01:05:00;101501.69;;;4.30;65.28
12360;BME280;6244;51.460;7.090;2023-03-04T01:09:57;101504.25;;;4.33;65.65
12360;BME280;6244;51.460;7.090;2023-03-04T01:14:54;101503.28;;;4.43;65.11
12360;BME280;6244;51.460;7.090;2023-03-04T01:19:51;101500.72;;;4.40;64.98
12360;BME280;6244;51.460;7.090;2023-03-04T01:24:48;101498.91;;;4.47;65.30
12360;BME280;6244;51.460;7.090;2023-03-04T01:29:45;101488.53;;;4.43;65.13
12360;BME280;6244;51.460;7.090;2023-03-04T01:34:41;101491.97;;;4.46;65.39
12360;BME280;6244;51.460;7.090;2023-03-04T01:39:39;101482.50;;;4.41;65.37
12360;BME280;6244;51.460;7.090;2023-03-04T01:44:36;101479.84;;;4.46;65.31
12360;BME280;6244;51.460;7.090;2023-03-04T01:49:32;101486.78;;;4.47;65.25
12360;BME280;6244;51.460;7.090;2023-03-04T01:54:29;101485.19;;;4.37;65.59
12360;BME280;6244;51.460;7.090;2023-03-04T01:59:30;101479.97;;;4.38;65.19
12360;BME280;6244;51.460;7.090;2023-03-04T02:04:28;101487.78;;;4.34;65.66
12360;BME280;6244;51.460;7.090;2023-03-04T02:09:27;101483.47;;;4.34;65.21
12360;BME280;6244;51.460;7.090;2023-03-04T02:14:24;101473.00;;;4.40;64.96
12360;BME280;6244;51.460;7.090;2023-03-04T02:19:30;101471.38;;;4.32;65.49
12360;BME280;6244;51.460;7.090;2023-03-04T02:24:35;101472.25;;;4.31;65.63
12360;BME280;6244;51.460;7.090;2023-03-04T02:29:35;101464.44;;;4.31;65.74
12360;BME280;6244;51.460;7.090;2023-03-04T02:34:34;101460.09;;;4.31;65.78
12360;BME280;6244;51.460;7.090;2023-03-04T02:39:34;101462.72;;;4.30;65.89
12360;BME280;6244;51.460;7.090;2023-03-04T02:44:33;101459.22;;;4.34;65.53
12360;BME280;6244;51.460;7.090;2023-03-04T02:49:32;101453.16;;;4.33;65.42
12360;BME280;6244;51.460;7.090;2023-03-04T02:54:28;101447.09;;;4.33;65.58
12360;BME280;6244;51.460;7.090;2023-03-04T02:59:25;101440.28;;;4.26;65.91
12360;BME280;6244;51.460;7.090;2023-03-04T03:04:23;101441.06;;;4.31;65.30
12360;BME280;6244;51.460;7.090;2023-03-04T03:09:21;101440.19;;;4.32;65.58
12360;BME280;6244;51.460;7.090;2023-03-04T03:14:18;101437.56;;;4.33;65.65
12360;BME280;6244;51.460;7.090;2023-03-04T03:19:15;101434.09;;;4.33;65.72
12360;BME280;6244;51.460;7.090;2023-03-04T03:24:11;101429.06;;;4.24;66.15
12360;BME280;6244;51.460;7.090;2023-03-04T03:29:09;101424.69;;;4.26;65.93
12360;BME280;6244;51.460;7.090;2023-03-04T03:34:05;101425.53;;;4.26;66.05
12360;BME280;6244;51.460;7.090;2023-03-04T03:39:02;101422.94;;;4.28;65.89
12360;BME280;6244;51.460;7.090;2023-03-04T03:43:58;101423.81;;;4.27;65.91
12360;BME280;6244;51.460;7.090;2023-03-04T03:48:57;101426.47;;;4.24;66.35
12360;BME280;6244;51.460;7.090;2023-03-04T03:53:53;101422.84;;;4.34;65.71
12360;BME280;6244;51.460;7.090;2023-03-04T03:58:50;101415.94;;;4.34;65.38
12360;BME280;6244;51.460;7.090;2023-03-04T04:03:46;101423.75;;;4.30;65.52
12360;BME280;6244;51.460;7.090;2023-03-04T04:08:44;101421.22;;;4.27;65.68
12360;BME280;6244;51.460;7.090;2023-03-04T04:13:41;101421.22;;;4.25;65.99
12360;BME280;6244;51.460;7.090;2023-03-04T04:18:37;101420.31;;;4.28;66.15
12360;BME280;6244;51.460;7.090;2023-03-04T04:23:34;101416.00;;;4.28;66.13
12360;BME280;6244;51.460;7.090;2023-03-04T04:28:32;101410.84;;;4.25;66.17
12360;BME280;6244;51.460;7.090;2023-03-04T04:33:28;101417.81;;;4.23;66.40
12360;BME280;6244;51.460;7.090;2023-03-04T04:38:25;101418.56;;;4.30;66.58
12360;BME280;6244;51.460;7.090;2023-03-04T04:43:21;101416.94;;;4.23;66.55
12360;BME280;6244;51.460;7.090;2023-03-04T04:48:19;101415.22;;;4.22;66.92
12360;BME280;6244;51.460;7.090;2023-03-04T04:53:16;101416.09;;;4.22;66.87
12360;BME280;6244;51.460;7.090;2023-03-04T04:58:12;101429.03;;;4.25;66.91
12360;BME280;6244;51.460;7.090;2023-03-04T05:03:09;101427.19;;;4.32;66.65
12360;BME280;6244;51.460;7.090;2023-03-04T05:08:07;101427.25;;;4.27;66.75
12360;BME280;6244;51.460;7.090;2023-03-04T05:13:03;101424.66;;;4.29;67.20
12360;BME280;6244;51.460;7.090;2023-03-04T05:18:00;101427.25;;;4.27;66.80
12360;BME280;6244;51.460;7.090;2023-03-04T05:22:56;101426.47;;;4.24;67.32
12360;BME280;6244;51.460;7.090;2023-03-04T05:27:54;101425.53;;;4.26;67.09
12360;BME280;6244;51.460;7.090;2023-03-04T05:32:51;101416.06;;;4.21;66.82
12360;BME280;6244;51.460;7.090;2023-03-04T05:37:47;101411.69;;;4.27;66.36
12360;BME280;6244;51.460;7.090;2023-03-04T05:42:44;101413.41;;;4.28;66.61
12360;BME280;6244;51.460;7.090;2023-03-04T05:47:42;101416.09;;;4.22;67.17
12360;BME280;6244;51.460;7.090;2023-03-04T05:52:38;101412.53;;;4.28;67.25
12360;BME280;6244;51.460;7.090;2023-03-04T05:57:35;101422.13;;;4.23;67.45
12360;BME280;6244;51.460;7.090;2023-03-04T06:02:31;101423.75;;;4.31;67.31
12360;BME280;6244;51.460;7.090;2023-03-04T06:07:29;101428.97;;;4.28;67.48
12360;BME280;6244;51.460;7.090;2023-03-04T06:12:26;101428.16;;;4.26;67.51
12360;BME280;6244;51.460;7.090;2023-03-04T06:17:24;101441.16;;;4.25;67.48
12360;BME280;6244;51.460;7.090;2023-03-04T06:22:20;101433.41;;;4.22;67.56
12360;BME280;6244;51.460;7.090;2023-03-04T06:27:18;101443.66;;;4.31;66.80
12360;BME280;6244;51.460;7.090;2023-03-04T06:32:14;101445.56;;;4.17;67.40
12360;BME280;6244;51.460;7.090;2023-03-04T06:37:11;101444.63;;;4.25;67.11
12360;BME280;6244;51.460;7.090;2023-03-04T06:42:07;101448.91;;;4.28;67.05
12360;BME280;6244;51.460;7.090;2023-03-04T06:47:05;101453.03;;;4.44;66.48
12360;BME280;6244;51.460;7.090;2023-03-04T06:52:02;101459.22;;;4.32;66.93
12360;BME280;6244;51.460;7.090;2023-03-04T06:56:59;101455.88;;;4.24;66.84
12360;BME280;6244;51.460;7.090;2023-03-04T07:01:55;101460.19;;;4.27;67.31
12360;BME280;6244;51.460;7.090;2023-03-04T07:06:53;101473.03;;;4.39;66.43
12360;BME280;6244;51.460;7.090;2023-03-04T07:11:49;101465.34;;;4.28;67.43
12360;BME280;6244;51.460;7.090;2023-03-04T07:16:46;101467.03;;;4.31;67.66
12360;BME280;6244;51.460;7.090;2023-03-04T07:21:43;101463.53;;;4.36;67.52
12360;BME280;6244;51.460;7.090;2023-03-04T07:26:41;101472.19;;;4.34;68.23
12360;BME280;6244;51.460;7.090;2023-03-04T07:31:37;101477.34;;;4.40;67.66
12360;BME280;6244;51.460;7.090;2023-03-04T07:36:43;101475.69;;;4.33;68.36
12360;BME280;6244;51.460;7.090;2023-03-04T07:41:42;101479.00;;;4.47;68.41
12360;BME280;6244;51.460;7.090;2023-03-04T07:46:39;101483.22;;;4.53;68.05
12360;BME280;6244;51.460;7.090;2023-03-04T07:51:36;101475.41;;;4.54;68.65
12360;BME280;6244;51.460;7.090;2023-03-04T07:56:33;101480.56;;;4.57;68.47
12360;BME280;6244;51.460;7.090;2023-03-04T08:01:34;101474.44;;;4.63;69.22
12360;BME280;6244;51.460;7.090;2023-03-04T08:06:31;101482.81;;;4.85;69.36
12360;BME280;6244;51.460;7.090;2023-03-04T08:11:29;101483.19;;;5.17;68.33
12360;BME280;6244;51.460;7.090;2023-03-04T08:16:26;101486.44;;;5.30;67.14
12360;BME280;6244;51.460;7.090;2023-03-04T08:21:25;101479.59;;;5.75;66.69
12360;BME280;6244;51.460;7.090;2023-03-04T08:26:24;101484.09;;;6.15;64.09
12360;BME280;6244;51.460;7.090;2023-03-04T08:31:21;101479.66;;;7.38;60.23
12360;BME280;6244;51.460;7.090;2023-03-04T08:36:19;101479.00;;;8.88;54.88
12360;BME280;6244;51.460;7.090;2023-03-04T08:41:17;101472.78;;;6.98;60.00
12360;BME280;6244;51.460;7.090;2023-03-04T08:46:14;101478.88;;;6.58;61.43
12360;BME280;6244;51.460;7.090;2023-03-04T08:51:12;101476.56;;;6.01;63.96
12360;BME280;6244;51.460;7.090;2023-03-04T08:56:12;101473.31;;;5.87;65.21
12360;BME280;6244;51.460;7.090;2023-03-04T09:01:11;101475.38;;;5.68;66.51
12360;BME280;6244;51.460;7.090;2023-03-04T09:06:10;101486.19;;;5.45;68.67
12360;BME280;6244;51.460;7.090;2023-03-04T09:11:09;101482.16;;;5.27;71.72
12360;BME280;6244;51.460;7.090;2023-03-04T09:16:09;101489.47;;;5.03;72.52
12360;BME280;6244;51.460;7.090;2023-03-04T09:21:07;101483.50;;;4.96;74.45
12360;BME280;6244;51.460;7.090;2023-03-04T09:26:13;101490.09;;;5.18;73.81
12360;BME280;6244;51.460;7.090;2023-03-04T09:31:12;101488.75;;;4.93;74.99
12360;BME280;6244;51.460;7.090;2023-03-04T09:36:10;101476.75;;;4.84;76.68
12360;BME280;6244;51.460;7.090;2023-03-04T09:41:08;101485.34;;;4.88;77.90
12360;BME280;6244;51.460;7.090;2023-03-04T09:46:08;101484.31;;;5.01;78.21
12360;BME280;6244;51.460;7.090;2023-03-04T09:51:20;101487.44;;;5.23;76.57
12360;BME280;6244;51.460;7.090;2023-03-04T09:56:17;101481.03;;;4.88;77.20
12360;BME280;6244;51.460;7.090;2023-03-04T10:01:19;101477.34;;;5.01;77.73
12360;BME280;6244;51.460;7.090;2023-03-04T10:06:20;101473.72;;;5.13;78.45
12360;BME280;6244;51.460;7.090;2023-03-04T10:11:20;101465.22;;;5.02;77.06
12360;BME280;6244;51.460;7.090;2023-03-04T10:16:21;101471.81;;;5.24;77.17
12360;BME280;6244;51.460;7.090;2023-03-04T10:21:25;101445.19;;;5.58;75.17
12360;BME280;6244;51.460;7.090;2023-03-04T10:26:28;101447.34;;;5.82;74.38
12360;BME280;6244;51.460;7.090;2023-03-04T10:31:31;101448.19;;;6.29;70.60
12360;BME280;6244;51.460;7.090;2023-03-04T10:36:42;101438.59;;;5.86;72.40
12360;BME280;6244;51.460;7.090;2023-03-04T10:41:45;101438.00;;;6.17;71.94
12360;BME280;6244;51.460;7.090;2023-03-04T10:46:51;101446.00;;;6.09;72.33
12360;BME280;6244;51.460;7.090;2023-03-04T10:51:52;101441.34;;;5.79;72.63
12360;BME280;6244;51.460;7.090;2023-03-04T10:56:55;101441.34;;;5.79;72.92
12360;BME280;6244;51.460;7.090;2023-03-04T11:01:53;101430.13;;;5.75;74.15
12360;BME280;6244;51.460;7.090;2023-03-04T11:06:51;101432.97;;;6.09;74.50
12360;BME280;6244;51.460;7.090;2023-03-04T11:11:49;101432.91;;;6.53;71.94
12360;BME280;6244;51.460;7.090;2023-03-04T11:16:52;101423.69;;;6.76;69.72
12360;BME280;6244;51.460;7.090;2023-03-04T11:21:51;101422.38;;;6.57;70.13
12360;BME280;6244;51.460;7.090;2023-03-04T11:26:52;101424.41;;;6.44;70.10
12360;BME280;6244;51.460;7.090;2023-03-04T11:31:52;101418.06;;;6.58;71.27
12360;BME280;6244;51.460;7.090;2023-03-04T11:36:54;101415.25;;;7.02;69.88
12360;BME280;6244;51.460;7.090;2023-03-04T11:41:57;101405.09;;;7.26;69.45
12360;BME280;6244;51.460;7.090;2023-03-04T11:47:17;101397.88;;;7.70;65.57
12360;BME280;6244;51.460;7.090;2023-03-04T11:52:29;101399.84;;;7.27;67.58
12360;BME280;6244;51.460;7.090;2023-03-04T11:57:33;101388.25;;;7.03;69.06
12360;BME280;6244;51.460;7.090;2023-03-04T12:02:40;101376.19;;;6.99;69.18
12360;BME280;6244;51.460;7.090;2023-03-04T12:07:52;101370.44;;;7.19;68.31
12360;BME280;6244;51.460;7.090;2023-03-04T12:13:13;101370.28;;;6.91;69.23
12360;BME280;6244;51.460;7.090;2023-03-04T12:18:28;101364.19;;;6.92;69.22
12360;BME280;6244;51.460;7.090;2023-03-04T12:23:43;101367.44;;;6.65;69.98
12360;BME280;6244;51.460;7.090;2023-03-04T12:28:48;101354.34;;;6.68;71.05
12360;BME280;6244;51.460;7.090;2023-03-04T12:33:57;101342.22;;;7.01;69.98
12360;BME280;6244;51.460;7.090;2023-03-04T12:39:07;101336.78;;;7.10;68.77
12360;BME280;6244;51.460;7.090;2023-03-04T12:44:13;101326.50;;;6.70;69.80
12360;BME280;6244;51.460;7.090;2023-03-04T12:49:45;101333.28;;;6.40;71.02
12360;BME280;6244;51.460;7.090;2023-03-04T12:54:51;101332.56;;;6.33;73.15
12360;BME280;6244;51.460;7.090;2023-03-04T12:59:54;101340.84;;;6.12;75.32
12360;BME280;6244;51.460;7.090;2023-03-04T13:04:58;101332.03;;;5.76;77.48
12360;BME280;6244;51.460;7.090;2023-03-04T13:10:04;101335.59;;;5.72;78.88
12360;BME280;6244;51.460;7.090;2023-03-04T13:15:30;101329.91;;;5.51;81.64
12360;BME280;6244;51.460;7.090;2023-03-04T13:20:36;101323.31;;;5.77;81.96
12360;BME280;6244;51.460;7.090;2023-03-04T13:25:45;101320.34;;;5.95;82.07
12360;BME280;6244;51.460;7.090;2023-03-04T13:31:21;101309.13;;;5.93;81.07
12360;BME280;6244;51.460;7.090;2023-03-04T13:41:47;101303.56;;;5.67;80.68
12360;BME280;6244;51.460;7.090;2023-03-04T13:46:44;101296.53;;;5.72;80.31
12360;BME280;6244;51.460;7.090;2023-03-04T13:51:43;101291.06;;;5.84;80.31
12360;BME280;6244;51.460;7.090;2023-03-04T13:56:40;101283.84;;;5.98;80.38
12360;BME280;6244;51.460;7.090;2023-03-04T14:01:51;101270.22;;;6.24;79.91
12360;BME280;6244;51.460;7.090;2023-03-04T14:06:51;101272.97;;;6.54;78.48
12360;BME280;6244;51.460;7.090;2023-03-04T14:11:49;101270.53;;;6.47;76.74
12360;BME280;6244;51.460;7.090;2023-03-04T14:16:50;101264.47;;;6.47;77.41
12360;BME280;6244;51.460;7.090;2023-03-04T14:21:47;101262.63;;;6.51;76.67
12360;BME280;6244;51.460;7.090;2023-03-04T14:26:44;101259.34;;;6.42;76.69
12360;BME280;6244;51.460;7.090;2023-03-04T14:31:41;101256.53;;;6.52;76.07
12360;BME280;6244;51.460;7.090;2023-03-04T14:36:42;101257.41;;;6.51;74.85
12360;BME280;6244;51.460;7.090;2023-03-04T14:41:40;101243.97;;;6.32;75.51
12360;BME280;6244;51.460;7.090;2023-03-04T14:46:39;101235.25;;;6.34;74.98
12360;BME280;6244;51.460;7.090;2023-03-04T14:51:42;101236.59;;;6.49;74.31
12360;BME280;6244;51.460;7.090;2023-03-04T14:56:42;101228.75;;;6.51;73.60
12360;BME280;6244;51.460;7.090;2023-03-04T15:01:39;101229.63;;;6.50;73.61
12360;BME280;6244;51.460;7.090;2023-03-04T15:06:37;101223.41;;;6.55;74.19
12360;BME280;6244;51.460;7.090;2023-03-04T15:11:45;101210.13;;;6.64;73.87
12360;BME280;6244;51.460;7.090;2023-03-04T15:16:53;101212.69;;;6.66;72.38
12360;BME280;6244;51.460;7.090;2023-03-04T15:22:02;101216.66;;;6.48;72.08
12360;BME280;6244;51.460;7.090;2023-03-04T15:27:00;101214.84;;;6.50;72.44
12360;BME280;6244;51.460;7.090;2023-03-04T15:31:58;101203.66;;;6.46;72.70
12360;BME280;6244;51.460;7.090;2023-03-04T15:36:55;101201.78;;;6.52;72.15
12360;BME280;6244;51.460;7.090;2023-03-04T15:41:53;101202.66;;;6.51;70.21
12360;BME280;6244;51.460;7.090;2023-03-04T15:46:51;101201.84;;;6.48;70.73
12360;BME280;6244;51.460;7.090;2023-03-04T15:51:47;101207.16;;;6.45;70.29
12360;BME280;6244;51.460;7.090;2023-03-04T15:56:44;101209.69;;;6.48;68.79
12360;BME280;6244;51.460;7.090;2023-03-04T16:01:41;101211.25;;;6.54;64.09
12360;BME280;6244;51.460;7.090;2023-03-04T16:06:40;101219.06;;;6.20;65.31
12360;BME280;6244;51.460;7.090;2023-03-04T16:11:40;101211.22;;;6.20;64.23
12360;BME280;6244;51.460;7.090;2023-03-04T16:16:39;101214.94;;;6.11;63.72
12360;BME280;6244;51.460;7.090;2023-03-04T16:21:36;101212.41;;;6.07;63.82
12360;BME280;6244;51.460;7.090;2023-03-04T16:26:34;101204.31;;;6.19;62.84
12360;BME280;6244;51.460;7.090;2023-03-04T16:31:30;101210.53;;;6.13;61.07
12360;BME280;6244;51.460;7.090;2023-03-04T16:36:27;101210.84;;;6.01;62.28
12360;BME280;6244;51.460;7.090;2023-03-04T16:41:26;101209.94;;;6.02;62.21
12360;BME280;6244;51.460;7.090;2023-03-04T16:46:26;101211.94;;;5.89;62.76
12360;BME280;6244;51.460;7.090;2023-03-04T16:51:24;101205.09;;;5.85;62.91
12360;BME280;6244;51.460;7.090;2023-03-04T16:56:21;101207.44;;;5.98;62.73
12360;BME280;6244;51.460;7.090;2023-03-04T17:01:19;101210.94;;;5.97;62.74
12360;BME280;6244;51.460;7.090;2023-03-04T17:06:17;101207.66;;;5.87;62.58
12360;BME280;6244;51.460;7.090;2023-03-04T17:11:17;101217.31;;;5.82;63.51
12360;BME280;6244;51.460;7.090;2023-03-04T17:16:14;101210.97;;;5.95;61.64
12360;BME280;6244;51.460;7.090;2023-03-04T17:21:13;101219.16;;;5.77;62.34
12360;BME280;6244;51.460;7.090;2023-03-04T17:26:12;101220.19;;;5.71;63.42
12360;BME280;6244;51.460;7.090;2023-03-04T17:31:10;101212.94;;;5.84;62.88
12360;BME280;6244;51.460;7.090;2023-03-04T17:36:09;101223.41;;;5.81;62.66
12360;BME280;6244;51.460;7.090;2023-03-04T17:41:08;101219.88;;;5.85;62.47
12360;BME280;6244;51.460;7.090;2023-03-04T17:46:10;101229.66;;;5.74;62.27
12360;BME280;6244;51.460;7.090;2023-03-04T17:51:09;101224.34;;;5.78;62.38
12360;BME280;6244;51.460;7.090;2023-03-04T17:56:07;101220.09;;;5.74;62.25
12360;BME280;6244;51.460;7.090;2023-03-04T18:01:05;101229.00;;;5.64;62.18
12360;BME280;6244;51.460;7.090;2023-03-04T18:06:04;101231.44;;;5.70;61.39
12360;BME280;6244;51.460;7.090;2023-03-04T18:11:00;101229.09;;;5.58;61.70
12360;BME280;6244;51.460;7.090;2023-03-04T18:15:57;101233.69;;;5.48;61.90
12360;BME280;6244;51.460;7.090;2023-03-04T18:20:56;101226.50;;;5.59;61.54
12360;BME280;6244;51.460;7.090;2023-03-04T18:25:54;101231.84;;;5.52;61.13
12360;BME280;6244;51.460;7.090;2023-03-04T18:30:51;101225.91;;;5.47;61.12
12360;BME280;6244;51.460;7.090;2023-03-04T18:35:48;101225.91;;;5.47;61.15
12360;BME280;6244;51.460;7.090;2023-03-04T18:40:44;101230.31;;;5.42;61.54
12360;BME280;6244;51.460;7.090;2023-03-04T18:45:42;101220.81;;;5.41;60.92
12360;BME280;6244;51.460;7.090;2023-03-04T18:50:40;101215.72;;;5.36;61.88
12360;BME280;6244;51.460;7.090;2023-03-04T18:55:37;101217.31;;;5.42;60.83
12360;BME280;6244;51.460;7.090;2023-03-04T19:00:33;101225.31;;;5.32;61.35
12360;BME280;6244;51.460;7.090;2023-03-04T19:05:31;101230.50;;;5.32;61.33
12360;BME280;6244;51.460;7.090;2023-03-04T19:10:28;101235.72;;;5.34;61.49
12360;BME280;6244;51.460;7.090;2023-03-04T19:15:25;101232.94;;;5.42;60.06
12360;BME280;6244;51.460;7.090;2023-03-04T19:20:22;101232.19;;;5.37;61.02
12360;BME280;6244;51.460;7.090;2023-03-04T19:25:20;101237.53;;;5.29;60.58
12360;BME280;6244;51.460;7.090;2023-03-04T19:30:17;101241.09;;;5.25;60.54
12360;BME280;6244;51.460;7.090;2023-03-04T19:35:14;101245.41;;;5.26;60.52
12360;BME280;6244;51.460;7.090;2023-03-04T19:40:11;101247.91;;;5.30;59.81
12360;BME280;6244;51.460;7.090;2023-03-04T19:45:09;101247.25;;;5.21;59.83
12360;BME280;6244;51.460;7.090;2023-03-04T19:50:08;101245.50;;;5.21;59.75
12360;BME280;6244;51.460;7.090;2023-03-04T19:55:05;101250.72;;;5.21;59.65
12360;BME280;6244;51.460;7.090;2023-03-04T20:00:05;101236.84;;;5.19;59.79
12360;BME280;6244;51.460;7.090;2023-03-04T20:05:04;101237.53;;;5.29;59.68
12360;BME280;6244;51.460;7.090;2023-03-04T20:10:01;101245.25;;;5.34;59.15
12360;BME280;6244;51.460;7.090;2023-03-04T20:14:58;101236.78;;;5.24;59.88
12360;BME280;6244;51.460;7.090;2023-03-04T20:19:54;101234.25;;;5.19;60.36
12360;BME280;6244;51.460;7.090;2023-03-04T20:24:52;101243.75;;;5.20;60.37
12360;BME280;6244;51.460;7.090;2023-03-04T20:29:49;101238.53;;;5.23;60.67
12360;BME280;6244;51.460;7.090;2023-03-04T20:34:45;101235.06;;;5.23;61.19
12360;BME280;6244;51.460;7.090;2023-03-04T20:39:43;101242.03;;;5.21;62.86
12360;BME280;6244;51.460;7.090;2023-03-04T20:44:42;101247.28;;;5.18;64.14
12360;BME280;6244;51.460;7.090;2023-03-04T20:49:38;101250.94;;;5.08;64.70
12360;BME280;6244;51.460;7.090;2023-03-04T20:54:36;101250.94;;;5.08;63.96
12360;BME280;6244;51.460;7.090;2023-03-04T20:59:34;101251.13;;;4.98;64.41
12360;BME280;6244;51.460;7.090;2023-03-04T21:04:33;101246.72;;;5.02;63.99
12360;BME280;6244;51.460;7.090;2023-03-04T21:09:30;101241.50;;;5.04;63.66
12360;BME280;6244;51.460;7.090;2023-03-04T21:14:27;101240.63;;;5.03;63.55
12360;BME280;6244;51.460;7.090;2023-03-04T21:19:27;101238.97;;;5.00;63.11
12360;BME280;6244;51.460;7.090;2023-03-04T21:24:28;101244.72;;;5.16;63.42
12360;BME280;6244;51.460;7.090;2023-03-04T21:29:25;101229.47;;;4.98;63.03
12360;BME280;6244;51.460;7.090;2023-03-04T21:34:24;101234.63;;;5.01;63.19
12360;BME280;6244;51.460;7.090;2023-03-04T21:39:24;101230.19;;;5.05;62.87
12360;BME280;6244;51.460;7.090;2023-03-04T21:44:21;101226.81;;;5.01;63.46
12360;BME280;6244;51.460;7.090;2023-03-04T21:49:18;101225.66;;;5.16;62.62
12360;BME280;6244;51.460;7.090;2023-03-04T21:54:14;101229.41;;;5.01;62.36
12360;BME280;6244;51.460;7.090;2023-03-04T21:59:13;101228.69;;;4.93;62.84
12360;BME280;6244;51.460;7.090;2023-03-04T22:04:11;101219.16;;;4.92;62.88
12360;BME280;6244;51.460;7.090;2023-03-04T22:09:08;101212.25;;;4.91;63.43
12360;BME280;6244;51.460;7.090;2023-03-04T22:14:06;101211.41;;;4.90;63.14
12360;BME280;6244;51.460;7.090;2023-03-04T22:19:04;101207.88;;;4.93;62.96
12360;BME280;6244;51.460;7.090;2023-03-04T22:24:00;101201.03;;;4.89;63.48
12360;BME280;6244;51.460;7.090;2023-03-04T22:28:57;101200.25;;;4.85;64.90
12360;BME280;6244;51.460;7.090;2023-03-04T22:33:54;101197.66;;;4.85;65.40
12360;BME280;6244;51.460;7.090;2023-03-04T22:38:52;101189.06;;;4.80;66.07
12360;BME280;6244;51.460;7.090;2023-03-04T22:43:49;101187.13;;;4.91;65.70
12360;BME280;6244;51.460;7.090;2023-03-04T22:48:46;101187.06;;;4.93;65.20
12360;BME280;6244;51.460;7.090;2023-03-04T22:53:43;101187.03;;;4.94;65.08
12360;BME280;6244;51.460;7.090;2023-03-04T22:58:41;101184.47;;;4.93;64.99
12360;BME280;6244;51.460;7.090;2023-03-04T23:03:39;101183.88;;;4.79;65.08
12360;BME280;6244;51.460;7.090;2023-03-04T23:08:37;101181.19;;;4.85;65.33
12360;BME280;6244;51.460;7.090;2023-03-04T23:13:34;101180.41;;;4.80;64.97
12360;BME280;6244;51.460;7.090;2023-03-04T23:18:32;101176.19;;;4.74;65.89
12360;BME280;6244;51.460;7.090;2023-03-04T23:23:28;101176.03;;;4.82;66.28
12360;BME280;6244;51.460;7.090;2023-03-04T23:28:25;101174.41;;;4.76;66.42
12360;BME280;6244;51.460;7.090;2023-03-04T23:33:22;101173.41;;;4.82;66.45
12360;BME280;6244;51.460;7.090;2023-03-04T23:38:20;101167.56;;;4.72;66.79
12360;BME280;6244;51.460;7.090;2023-03-04T23:43:16;101171.38;;;4.53;68.12
12360;BME280;6244;51.460;7.090;2023-03-04T23:48:13;101166.03;;;4.59;68.79
12360;BME280;6244;51.460;7.090;2023-03-04T23:53:09;101167.91;;;4.52;69.08
12360;BME280;6244;51.460;7.090;2023-03-04T23:58:07;101166.91;;;4.61;69.45
